createdAt,value
2023-03-26T00:04:11.352Z,999.8
2023-03-26T00:09:11.131Z,999.8
2023-03-26T00:14:12.007Z,999.8
2023-03-26T00:19:19.447Z,999.8
2023-03-26T00:24:19.725Z,999.8
2023-03-26T00:29:19.969Z,999.7
2023-03-26T00:34:17.308Z,999.7
2023-03-26T00:39:17.137Z,999.6
2023-03-26T00:44:18.662Z,999.6
2023-03-26T00:49:15.753Z,999.5
2023-03-26T00:54:15.846Z,999.5
2023-03-26T00:59:16.088Z,999.4
2023-03-26T01:04:28.768Z,999.3
2023-03-26T01:09:04.630Z,999.3
2023-03-26T01:14:04.658Z,999.1
2023-03-26T01:19:05.611Z,999.1
2023-03-26T01:24:02.153Z,999
2023-03-26T01:29:03.529Z,998.9
2023-03-26T01:34:01.285Z,998.9
2023-03-26T01:39:00.873Z,998.8
2023-03-26T01:43:58.491Z,998.6
2023-03-26T01:48:58.078Z,998.5
2023-03-26T01:53:57.035Z,998.4
2023-03-26T01:58:57.731Z,998.2
2023-03-26T02:00:45.820Z,998.1
2023-03-26T02:05:28.983Z,998.1
2023-03-26T02:15:27.626Z,998
2023-03-26T02:25:28.112Z,997.9
2023-03-26T02:30:28.769Z,997.7
2023-03-26T02:35:26.076Z,997.7
2023-03-26T02:40:25.770Z,997.7
2023-03-26T02:45:27.458Z,997.6
2023-03-26T02:50:24.249Z,997.5
2023-03-26T02:55:23.804Z,997.5
2023-03-26T03:44:23.562Z,996.8
2023-03-26T04:04:13.575Z,996.3
2023-03-26T04:09:09.254Z,996.2
2023-03-26T04:14:12.892Z,996.1
2023-03-26T04:19:08.592Z,996
2023-03-26T04:24:08.862Z,995.9
2023-03-26T04:29:06.125Z,995.7
2023-03-26T04:34:06.007Z,995.7
2023-03-26T04:39:05.142Z,995.6
2023-03-26T04:44:04.847Z,995.6
2023-03-26T04:49:04.910Z,995.6
2023-03-26T04:54:04.112Z,995.5
2023-03-26T04:59:04.333Z,995.4
2023-03-26T05:04:04.000Z,995.4
2023-03-26T05:09:05.219Z,995.2
2023-03-26T05:14:02.811Z,995
2023-03-26T05:19:01.803Z,995
2023-03-26T05:24:01.979Z,995
2023-03-26T05:29:03.049Z,994.8
2023-03-26T05:34:01.311Z,994.7
2023-03-26T05:38:59.715Z,994.5
2023-03-26T05:43:59.181Z,994.3
2023-03-26T05:49:00.590Z,994.2
2023-03-26T05:53:56.829Z,994.1
2023-03-26T05:58:56.633Z,994
2023-03-26T06:00:44.661Z,993.9
2023-03-26T06:05:29.936Z,993.9
2023-03-26T06:10:29.581Z,993.9
2023-03-26T06:15:26.857Z,993.8
2023-03-26T06:20:26.994Z,993.8
2023-03-26T06:25:25.067Z,993.6
2023-03-26T06:30:24.627Z,993.5
2023-03-26T06:35:24.745Z,993.6
2023-03-26T06:40:25.446Z,993.5
2023-03-26T06:50:24.425Z,993.6
2023-03-26T06:55:23.303Z,993.5
2023-03-26T07:34:42.461Z,993.1
2023-03-26T07:58:38.800Z,992.6
2023-03-26T08:03:39.035Z,992.6
2023-03-26T08:08:37.734Z,992.5
2023-03-26T08:13:37.570Z,992.6
2023-03-26T08:18:36.839Z,992.6
2023-03-26T08:23:36.583Z,992.8
2023-03-26T08:28:36.562Z,992.5
2023-03-26T08:33:37.859Z,992.6
2023-03-26T08:38:34.169Z,992.6
2023-03-26T08:43:33.669Z,992.5
2023-03-26T08:48:33.240Z,992.5
2023-03-26T08:53:32.978Z,992.5
2023-03-26T08:58:32.689Z,992.4
2023-03-26T09:59:06.828Z,991.8
2023-03-26T10:00:53.942Z,991.7
2023-03-26T10:05:27.147Z,991.7
2023-03-26T10:10:27.218Z,991.4
2023-03-26T10:15:25.212Z,991.5
2023-03-26T10:20:25.266Z,991.2
2023-03-26T10:25:24.746Z,991.2
2023-03-26T10:30:24.710Z,991
2023-03-26T10:45:27.014Z,991.2
2023-03-26T10:50:33.557Z,990.9
2023-03-26T10:55:26.072Z,991.1
2023-03-26T11:09:45.502Z,991.1
2023-03-26T11:14:55.814Z,991
2023-03-26T11:29:53.455Z,991.2
2023-03-26T12:30:18.972Z,991.2
2023-03-26T12:40:32.792Z,990.9
2023-03-26T13:04:07.514Z,990.6
2023-03-26T13:09:06.896Z,990.5
2023-03-26T13:14:06.792Z,990.6
2023-03-26T13:19:05.314Z,990.6
2023-03-26T13:24:05.144Z,990.7
2023-03-26T13:29:04.371Z,990.8
2023-03-26T13:34:05.353Z,990.9
2023-03-26T13:39:10.058Z,991
2023-03-26T13:44:01.821Z,990.9
2023-03-26T13:49:00.881Z,991.2
2023-03-26T13:54:00.850Z,991.3
2023-03-26T13:58:58.054Z,991.5
2023-03-26T14:00:53.629Z,991.6
2023-03-26T14:05:28.714Z,991.9
2023-03-26T14:10:29.833Z,991.7
2023-03-26T14:15:26.644Z,992.3
2023-03-26T14:20:25.730Z,992.5
2023-03-26T14:25:25.851Z,992.5
2023-03-26T14:35:23.717Z,992.5
2023-03-26T14:40:22.886Z,992.5
2023-03-26T15:44:54.568Z,992.1
2023-03-26T17:04:07.789Z,992.6
2023-03-26T17:09:08.314Z,992.6
2023-03-26T17:14:08.516Z,992.6
2023-03-26T17:19:04.912Z,992.7
2023-03-26T17:24:04.672Z,992.7
2023-03-26T17:29:04.196Z,992.6
2023-03-26T17:34:04.481Z,992.6
2023-03-26T17:39:06.726Z,992.6
2023-03-26T17:44:01.376Z,992.6
2023-03-26T17:49:00.588Z,992.7
2023-03-26T17:54:00.441Z,992.5
2023-03-26T17:58:59.615Z,992.5
2023-03-26T18:03:59.453Z,992.5
2023-03-26T18:08:59.155Z,992.7
2023-03-26T18:13:59.038Z,992.7
2023-03-26T18:18:56.604Z,992.7
2023-03-26T18:23:59.234Z,992.7
2023-03-26T18:28:56.107Z,992.6
2023-03-26T18:33:55.589Z,992.7
2023-03-26T18:38:58.903Z,992.7
2023-03-26T18:43:56.504Z,992.8
2023-03-26T18:48:54.751Z,992.8
2023-03-26T18:53:54.472Z,992.9
2023-03-26T18:58:55.141Z,992.8
2023-03-26T19:05:26.179Z,992.8
2023-03-26T19:10:26.357Z,992.7
2023-03-26T19:15:24.353Z,992.8
2023-03-26T19:20:23.924Z,992.8
2023-03-26T19:25:24.100Z,992.8
2023-03-26T19:30:23.476Z,992.7
2023-03-26T19:35:23.628Z,992.7
2023-03-26T19:40:23.493Z,992.5
2023-03-26T19:45:11.485Z,992.4
2023-03-26T19:50:11.573Z,992.4
2023-03-26T19:55:21.705Z,992.3
2023-03-26T19:59:32.824Z,992.3
2023-03-26T20:04:32.124Z,992.3
2023-03-26T20:09:31.708Z,992.4
2023-03-26T20:14:31.821Z,992.3
2023-03-26T20:19:31.052Z,992.3
2023-03-26T20:24:32.290Z,992.4
2023-03-26T20:29:28.496Z,992.4
2023-03-26T20:34:28.521Z,992.4
2023-03-26T20:39:27.908Z,992.4
2023-03-26T20:44:28.029Z,992.5
2023-03-26T20:49:25.585Z,992.5
2023-03-26T20:54:25.752Z,992.5
2023-03-26T20:59:22.633Z,992.5
2023-03-26T21:04:10.497Z,992.6
2023-03-26T21:09:09.984Z,992.7
2023-03-26T21:14:09.638Z,992.8
2023-03-26T21:19:08.969Z,992.8
2023-03-26T21:24:09.577Z,992.9
2023-03-26T21:29:06.941Z,993
2023-03-26T21:34:06.686Z,993.1
2023-03-26T21:39:06.444Z,993.1
2023-03-26T21:44:06.149Z,993.1
2023-03-26T21:49:05.719Z,993.1
2023-03-26T21:54:04.932Z,993.2
2023-03-26T21:59:05.491Z,993.3
2023-03-26T22:04:04.878Z,993.3
2023-03-26T22:09:06.241Z,993.3
2023-03-26T22:14:02.935Z,993.4
2023-03-26T22:19:03.162Z,993.4
2023-03-26T22:24:02.220Z,993.5
2023-03-26T22:29:02.348Z,993.7
2023-03-26T22:33:59.404Z,993.7
2023-03-26T22:38:59.443Z,993.9
2023-03-26T22:43:59.679Z,994
2023-03-26T22:48:58.536Z,994.1
2023-03-26T22:53:57.887Z,994.2
2023-03-26T22:58:57.745Z,994.4
2023-03-26T23:00:44.548Z,994.4
2023-03-26T23:25:25.214Z,995
2023-03-26T23:30:25.680Z,995.2
2023-03-26T23:40:26.211Z,995.4
2023-03-26T23:45:23.713Z,995.5
2023-03-26T23:50:23.193Z,995.6
2023-03-26T23:55:24.880Z,995.8
2023-03-26T23:59:18.647Z,995.8
